createdAt,value
2022-11-17T00:00:37.012Z,7.2
2022-11-17T00:03:03.090Z,7.1
2022-11-17T00:05:29.193Z,7.1
2022-11-17T00:07:55.294Z,7.1
2022-11-17T00:10:21.388Z,7.2
2022-11-17T00:12:47.481Z,7.2
2022-11-17T00:15:13.688Z,7.3
2022-11-17T00:17:39.662Z,7.4
2022-11-17T00:20:04.781Z,7.4
2022-11-17T00:22:30.884Z,7.3
2022-11-17T00:24:56.987Z,7.4
2022-11-17T00:27:23.061Z,7.4
2022-11-17T00:29:49.173Z,7.5
2022-11-17T00:32:15.278Z,7.5
2022-11-17T00:34:41.359Z,7.5
2022-11-17T00:37:07.539Z,7.6
2022-11-17T00:39:33.613Z,7.6
2022-11-17T00:41:59.637Z,7.6
2022-11-17T00:44:25.748Z,7.6
2022-11-17T00:46:51.829Z,7.5
2022-11-17T00:49:17.932Z,7.5
2022-11-17T00:51:43.137Z,7.6
2022-11-17T00:54:09.184Z,7.6
2022-11-17T00:56:35.233Z,7.6
2022-11-17T00:59:01.331Z,7.6
2022-11-17T01:01:27.462Z,7.6
2022-11-17T01:03:53.563Z,7.6
2022-11-17T01:06:18.734Z,7.7
2022-11-17T01:08:44.731Z,7.6
2022-11-17T01:11:10.819Z,7.6
2022-11-17T01:13:36.917Z,7.6
2022-11-17T01:16:03.034Z,7.6
2022-11-17T01:18:29.121Z,7.7
2022-11-17T01:20:55.223Z,7.7
2022-11-17T01:23:21.324Z,7.7
2022-11-17T01:25:47.413Z,7.7
2022-11-17T01:28:13.495Z,7.7
2022-11-17T01:30:39.606Z,7.7
2022-11-17T01:33:05.698Z,7.7
2022-11-17T01:35:31.824Z,7.7
2022-11-17T01:37:56.914Z,7.7
2022-11-17T01:40:22.985Z,7.8
2022-11-17T01:42:49.094Z,7.8
2022-11-17T01:45:15.188Z,7.8
2022-11-17T01:47:41.303Z,7.8
2022-11-17T01:50:07.387Z,7.8
2022-11-17T01:52:33.507Z,7.8
2022-11-17T01:54:59.576Z,7.9
2022-11-17T01:57:25.672Z,7.9
2022-11-17T01:59:51.774Z,7.9
2022-11-17T02:02:17.864Z,7.9
2022-11-17T02:04:43.952Z,7.9
2022-11-17T02:07:10.050Z,7.9
2022-11-17T02:09:35.170Z,7.9
2022-11-17T02:12:01.268Z,8
2022-11-17T02:14:27.364Z,8
2022-11-17T02:16:53.460Z,8
2022-11-17T02:19:19.621Z,8
2022-11-17T02:21:45.647Z,8.1
2022-11-17T02:24:11.737Z,8.1
2022-11-17T02:26:37.851Z,8.1
2022-11-17T02:29:03.921Z,8.1
2022-11-17T02:31:30.020Z,8.1
2022-11-17T02:33:56.110Z,8.1
2022-11-17T02:36:22.222Z,8.2
2022-11-17T02:38:48.308Z,8.2
2022-11-17T02:41:13.423Z,8.2
2022-11-17T02:43:39.592Z,8.2
2022-11-17T02:46:05.618Z,8.2
2022-11-17T02:48:31.712Z,8.2
2022-11-17T02:50:57.847Z,8.2
2022-11-17T02:53:23.923Z,8.2
2022-11-17T02:55:50.002Z,8.2
2022-11-17T02:58:16.143Z,8.1
2022-11-17T03:00:42.193Z,8
2022-11-17T03:03:08.274Z,8
2022-11-17T03:05:34.368Z,7.9
2022-11-17T03:08:00.477Z,7.9
2022-11-17T03:10:26.641Z,7.9
2022-11-17T03:12:51.733Z,7.9
2022-11-17T03:15:17.771Z,7.9
2022-11-17T03:17:43.880Z,7.9
2022-11-17T03:20:09.965Z,7.9
2022-11-17T03:22:36.063Z,7.9
2022-11-17T03:25:02.155Z,7.9
2022-11-17T03:27:28.245Z,7.9
2022-11-17T03:29:54.340Z,8
2022-11-17T03:32:20.446Z,8.1
2022-11-17T03:34:46.672Z,8.1
2022-11-17T03:37:12.638Z,8.2
2022-11-17T03:39:38.744Z,8.2
2022-11-17T03:42:04.830Z,8.1
2022-11-17T03:44:29.940Z,8.2
2022-11-17T03:46:56.035Z,8.2
2022-11-17T03:49:22.146Z,8.2
2022-11-17T03:51:48.233Z,8.2
2022-11-17T03:54:14.314Z,8.2
2022-11-17T03:56:40.429Z,8.2
2022-11-17T03:59:06.522Z,8.2
2022-11-17T04:01:32.618Z,8.2
2022-11-17T04:03:58.706Z,8.3
2022-11-17T04:06:24.800Z,8.3
2022-11-17T04:08:50.921Z,8.2
2022-11-17T04:11:17.018Z,8.2
2022-11-17T04:13:43.094Z,8.2
2022-11-17T04:16:08.219Z,8.2
2022-11-17T04:18:34.287Z,8.3
2022-11-17T04:21:00.401Z,8.3
2022-11-17T04:23:26.504Z,8.4
2022-11-17T04:25:52.583Z,8.4
2022-11-17T04:28:18.687Z,8.4
2022-11-17T04:30:44.766Z,8.4
2022-11-17T04:33:10.872Z,8.4
2022-11-17T04:35:36.975Z,8.5
2022-11-17T04:38:03.054Z,8.5
2022-11-17T04:40:29.159Z,8.5
2022-11-17T04:42:55.266Z,8.6
2022-11-17T04:45:21.343Z,8.6
2022-11-17T04:47:46.570Z,8.6
2022-11-17T04:50:12.559Z,8.6
2022-11-17T04:52:38.647Z,8.7
2022-11-17T04:55:04.798Z,8.7
2022-11-17T04:57:30.845Z,8.7
2022-11-17T04:59:56.948Z,8.8
2022-11-17T05:02:23.046Z,8.8
2022-11-17T05:04:49.140Z,8.8
2022-11-17T05:07:15.237Z,8.8
2022-11-17T05:09:41.317Z,8.9
2022-11-17T05:12:07.461Z,8.9
2022-11-17T05:14:33.509Z,8.9
2022-11-17T05:16:59.671Z,8.9
2022-11-17T05:19:24.740Z,8.9
2022-11-17T05:21:50.828Z,8.9
2022-11-17T05:24:16.939Z,8.9
2022-11-17T05:26:43.069Z,8.9
2022-11-17T05:29:09.104Z,8.9
2022-11-17T05:31:35.205Z,8.9
2022-11-17T05:34:01.321Z,8.8
2022-11-17T05:36:27.398Z,8.8
2022-11-17T05:38:53.533Z,8.8
2022-11-17T05:41:19.580Z,8.8
2022-11-17T05:43:45.682Z,8.8
2022-11-17T05:46:11.784Z,8.8
2022-11-17T05:48:37.877Z,8.8
2022-11-17T05:51:02.983Z,8.8
2022-11-17T05:53:29.066Z,8.8
2022-11-17T05:55:55.172Z,8.8
2022-11-17T05:58:21.281Z,8.9
2022-11-17T06:00:47.367Z,8.9
2022-11-17T06:03:13.552Z,8.9
2022-11-17T06:05:39.554Z,8.9
2022-11-17T06:08:05.645Z,8.9
2022-11-17T06:10:31.744Z,8.9
2022-11-17T06:12:57.847Z,8.9
2022-11-17T06:15:23.945Z,8.8
2022-11-17T06:17:50.098Z,8.8
2022-11-17T06:20:16.154Z,8.8
2022-11-17T06:22:41.238Z,8.8
2022-11-17T06:25:07.332Z,8.8
2022-11-17T06:27:33.459Z,8.8
2022-11-17T06:29:59.520Z,8.9
2022-11-17T06:32:25.643Z,8.9
2022-11-17T06:34:51.809Z,8.9
2022-11-17T06:37:17.883Z,8.9
2022-11-17T06:39:43.920Z,9
2022-11-17T06:42:10.007Z,9
2022-11-17T06:44:36.222Z,9
2022-11-17T06:47:02.192Z,9
2022-11-17T06:49:28.287Z,8.9
2022-11-17T06:51:54.380Z,8.9
2022-11-17T06:54:19.536Z,8.8
2022-11-17T06:56:45.609Z,8.8
2022-11-17T06:59:11.805Z,8.7
2022-11-17T07:01:37.810Z,8.7
2022-11-17T07:04:03.885Z,8.6
2022-11-17T07:06:30.045Z,8.7
2022-11-17T07:08:56.092Z,8.6
2022-11-17T07:11:22.174Z,8.7
2022-11-17T07:13:48.259Z,8.6
2022-11-17T07:16:14.381Z,8.6
2022-11-17T07:18:40.516Z,8.7
2022-11-17T07:21:06.577Z,8.8
2022-11-17T07:23:32.641Z,8.9
2022-11-17T07:25:57.814Z,9
2022-11-17T07:28:23.887Z,9.1
2022-11-17T07:30:49.940Z,9.2
2022-11-17T07:33:16.132Z,9.3
2022-11-17T07:35:42.150Z,9.4
2022-11-17T07:38:08.242Z,9.4
2022-11-17T07:40:34.339Z,9.5
2022-11-17T07:43:00.469Z,9.5
2022-11-17T07:45:26.528Z,9.6
2022-11-17T07:47:52.625Z,9.6
2022-11-17T07:50:18.716Z,9.7
2022-11-17T07:52:44.839Z,9.8
2022-11-17T07:55:10.898Z,9.8
2022-11-17T07:57:36.020Z,9.8
2022-11-17T08:00:02.096Z,9.9
2022-11-17T08:02:28.333Z,9.9
2022-11-17T08:04:54.308Z,10
2022-11-17T08:07:20.421Z,10
2022-11-17T08:09:46.506Z,10
2022-11-17T08:12:12.642Z,10
2022-11-17T08:14:38.692Z,10
2022-11-17T08:17:04.824Z,10.1
2022-11-17T08:19:30.885Z,10.1
2022-11-17T08:21:56.988Z,10.2
2022-11-17T08:24:23.121Z,10.2
2022-11-17T08:26:49.195Z,10.2
2022-11-17T08:29:14.294Z,10.3
2022-11-17T08:31:40.430Z,10.4
2022-11-17T08:34:06.480Z,10.4
2022-11-17T08:36:32.568Z,10.5
2022-11-17T08:38:58.661Z,10.6
2022-11-17T08:41:24.779Z,10.7
2022-11-17T08:43:50.852Z,10.8
2022-11-17T08:46:17.029Z,11.2
2022-11-17T08:48:43.041Z,11.5
2022-11-17T08:51:09.241Z,11.7
2022-11-17T08:53:35.241Z,11.8
2022-11-17T08:56:01.351Z,11.8
2022-11-17T08:58:27.441Z,12
2022-11-17T09:00:52.543Z,12.1
2022-11-17T09:03:18.661Z,12.3
2022-11-17T09:05:44.882Z,12.3
2022-11-17T09:08:10.989Z,12.4
2022-11-17T09:10:36.911Z,12.4
2022-11-17T09:13:03.020Z,12.4
2022-11-17T09:15:28.128Z,12.4
2022-11-17T09:17:54.259Z,12.5
2022-11-17T09:20:20.312Z,12.6
2022-11-17T09:22:46.401Z,12.7
2022-11-17T09:25:12.508Z,12.8
2022-11-17T09:27:38.607Z,12.9
2022-11-17T09:30:04.708Z,12.9
2022-11-17T09:32:30.979Z,13
2022-11-17T09:34:56.984Z,13
2022-11-17T09:37:23.002Z,13.1
2022-11-17T09:39:49.088Z,13.1
2022-11-17T09:42:15.184Z,13.1
2022-11-17T09:44:41.282Z,13.2
2022-11-17T09:47:06.412Z,13.2
2022-11-17T09:49:32.475Z,13.3
2022-11-17T09:51:58.564Z,13.3
2022-11-17T09:54:24.697Z,13.3
2022-11-17T09:56:50.785Z,13.3
2022-11-17T09:59:16.865Z,13.4
2022-11-17T10:01:42.962Z,13.3
2022-11-17T10:04:09.037Z,13.3
2022-11-17T10:06:35.158Z,13.2
2022-11-17T10:09:01.237Z,13.2
2022-11-17T10:11:27.340Z,13.2
2022-11-17T10:13:53.431Z,13.4
2022-11-17T10:16:19.684Z,13.3
2022-11-17T10:18:44.643Z,13.4
2022-11-17T10:21:10.728Z,13.5
2022-11-17T10:23:36.831Z,13.5
2022-11-17T10:26:02.922Z,13.5
2022-11-17T10:28:29.033Z,13.4
2022-11-17T10:30:55.107Z,13.4
2022-11-17T10:33:21.205Z,13.3
2022-11-17T10:35:47.310Z,13.2
2022-11-17T10:38:13.409Z,13.2
2022-11-17T10:40:39.480Z,13.4
2022-11-17T10:43:05.586Z,13.6
2022-11-17T10:45:31.795Z,13.8
2022-11-17T10:47:57.970Z,13.9
2022-11-17T10:50:22.894Z,13.9
2022-11-17T10:52:48.981Z,13.9
2022-11-17T10:55:15.098Z,14
2022-11-17T10:57:41.179Z,14.1
2022-11-17T11:00:07.271Z,14.2
2022-11-17T11:02:33.363Z,14.1
2022-11-17T11:04:59.457Z,14
2022-11-17T11:07:25.568Z,13.9
2022-11-17T11:09:51.640Z,14
2022-11-17T11:12:17.746Z,14.1
2022-11-17T11:14:43.843Z,14.1
2022-11-17T11:17:09.917Z,14.1
2022-11-17T11:19:36.020Z,14.2
2022-11-17T11:22:01.138Z,14.2
2022-11-17T11:24:27.241Z,14.2
2022-11-17T11:26:53.318Z,14.3
2022-11-17T11:29:19.414Z,14.4
2022-11-17T11:31:45.507Z,14.5
2022-11-17T11:34:11.615Z,14.4
2022-11-17T11:36:37.698Z,14.5
2022-11-17T11:39:03.795Z,14.5
2022-11-17T11:41:29.913Z,14.4
2022-11-17T11:43:56.001Z,14.5
2022-11-17T11:46:22.105Z,14.5
2022-11-17T11:48:48.182Z,14.5
2022-11-17T11:51:14.288Z,14.5
2022-11-17T11:53:39.392Z,14.6
2022-11-17T11:56:05.478Z,14.6
2022-11-17T11:58:31.572Z,14.6
2022-11-17T12:00:57.678Z,14.6
2022-11-17T12:03:23.782Z,14.4
2022-11-17T12:05:49.873Z,14.3
2022-11-17T12:08:15.956Z,14.3
2022-11-17T12:10:42.061Z,14.3
2022-11-17T12:13:08.143Z,14.4
2022-11-17T12:15:34.252Z,14.5
2022-11-17T12:18:00.349Z,14.5
2022-11-17T12:20:26.443Z,14.5
2022-11-17T12:22:52.525Z,14.5
2022-11-17T12:25:17.635Z,14.6
2022-11-17T12:27:43.735Z,14.6
2022-11-17T12:30:09.826Z,14.5
2022-11-17T12:32:35.917Z,14.6
2022-11-17T12:35:02.038Z,14.6
2022-11-17T12:37:28.110Z,14.7
2022-11-17T12:39:54.218Z,14.6
2022-11-17T12:42:20.294Z,14.7
2022-11-17T12:44:46.389Z,14.7
2022-11-17T12:47:12.492Z,14.7
2022-11-17T12:49:38.597Z,14.7
2022-11-17T12:52:04.672Z,14.7
2022-11-17T12:54:30.778Z,14.8
2022-11-17T12:56:55.889Z,14.9
2022-11-17T12:59:22.879Z,14.9
2022-11-17T13:01:48.093Z,15
2022-11-17T13:04:14.190Z,15.1
2022-11-17T13:06:40.279Z,15.1
2022-11-17T13:09:06.878Z,15
2022-11-17T13:11:32.552Z,14.9
2022-11-17T13:13:58.667Z,14.8
2022-11-17T13:16:24.649Z,14.8
2022-11-17T13:18:50.899Z,14.8
2022-11-17T13:21:16.853Z,14.8
2022-11-17T13:23:43.173Z,14.7
2022-11-17T13:26:09.173Z,14.7
2022-11-17T13:28:34.343Z,14.7
2022-11-17T13:31:00.545Z,14.7
2022-11-17T13:33:26.470Z,14.7
2022-11-17T13:35:52.680Z,14.8
2022-11-17T13:38:18.690Z,14.9
2022-11-17T13:40:44.840Z,14.9
2022-11-17T13:43:10.727Z,14.9
2022-11-17T13:45:36.958Z,14.9
2022-11-17T13:48:02.922Z,14.8
2022-11-17T13:50:29.142Z,14.8
2022-11-17T13:52:55.103Z,14.9
2022-11-17T13:55:21.262Z,14.9
2022-11-17T13:57:47.445Z,14.9
2022-11-17T14:00:12.410Z,14.9
2022-11-17T14:02:38.593Z,15
2022-11-17T14:05:04.617Z,15
2022-11-17T14:07:30.691Z,15
2022-11-17T14:09:56.800Z,15
2022-11-17T14:12:22.894Z,15
2022-11-17T14:14:48.986Z,14.9
2022-11-17T14:17:15.117Z,14.9
2022-11-17T14:19:41.182Z,14.8
2022-11-17T14:22:07.283Z,14.8
2022-11-17T14:24:33.379Z,14.6
2022-11-17T14:29:25.687Z,14.5
2022-11-17T14:31:50.861Z,14.4
2022-11-17T14:34:16.798Z,14.4
2022-11-17T14:36:42.978Z,14.4
2022-11-17T14:39:09.078Z,14.4
2022-11-17T14:41:35.204Z,14.4
2022-11-17T14:44:01.253Z,14.4
2022-11-17T14:46:27.381Z,14.3
2022-11-17T14:48:53.496Z,14.2
2022-11-17T14:51:19.464Z,14.1
2022-11-17T14:53:45.670Z,14
2022-11-17T14:56:11.827Z,13.8
2022-11-17T14:58:37.843Z,13.7
2022-11-17T15:01:03.974Z,13.5
2022-11-17T15:03:29.109Z,13.3
2022-11-17T15:05:55.260Z,13.1
2022-11-17T15:08:21.131Z,13
2022-11-17T15:10:47.417Z,12.8
2022-11-17T15:13:13.464Z,12.7
2022-11-17T15:15:39.610Z,12.6
2022-11-17T15:18:05.687Z,12.5
2022-11-17T15:20:31.739Z,12.4
2022-11-17T15:22:57.704Z,12.5
2022-11-17T15:25:23.940Z,12.4
2022-11-17T15:27:50.050Z,12.3
2022-11-17T15:30:16.026Z,12.3
2022-11-17T15:32:42.164Z,12.2
2022-11-17T15:35:07.294Z,12.2
2022-11-17T15:37:33.291Z,12.2
2022-11-17T15:39:59.542Z,12.2
2022-11-17T15:42:25.623Z,12.2
2022-11-17T15:44:51.736Z,12.1
2022-11-17T15:47:17.662Z,12.2
2022-11-17T15:49:43.859Z,12.4
2022-11-17T15:52:09.863Z,12.3
2022-11-17T15:54:36.046Z,12.2
2022-11-17T15:57:02.148Z,12
2022-11-17T15:59:28.244Z,11.8
2022-11-17T16:01:54.331Z,11.6
2022-11-17T16:04:20.454Z,11.4
2022-11-17T16:06:45.554Z,11.2
2022-11-17T16:09:11.541Z,11.1
2022-11-17T16:11:37.752Z,10.9
2022-11-17T16:14:03.899Z,10.8
2022-11-17T16:16:29.915Z,10.7
2022-11-17T16:18:55.921Z,10.6
2022-11-17T16:21:22.262Z,10.5
2022-11-17T16:23:48.188Z,10.5
2022-11-17T16:26:14.232Z,10.4
2022-11-17T16:28:40.463Z,10.4
2022-11-17T16:31:06.456Z,10.4
2022-11-17T16:33:32.499Z,10.4
2022-11-17T16:35:58.590Z,10.4
2022-11-17T16:38:23.701Z,10.4
2022-11-17T16:40:49.868Z,10.3
2022-11-17T16:43:15.901Z,10.3
2022-11-17T16:45:41.977Z,10.3
2022-11-17T16:48:08.097Z,10.3
2022-11-17T16:50:34.197Z,10.3
2022-11-17T16:53:00.323Z,10.2
2022-11-17T16:55:26.400Z,10.3
2022-11-17T16:57:52.630Z,10.2
2022-11-17T17:00:18.573Z,10.2
2022-11-17T17:02:44.652Z,10.2
2022-11-17T17:05:10.804Z,10.2
2022-11-17T17:07:36.838Z,10.2
2022-11-17T17:10:01.953Z,10.3
2022-11-17T17:12:28.049Z,10.3
2022-11-17T17:14:54.149Z,10.3
2022-11-17T17:17:20.257Z,10.4
2022-11-17T17:19:46.328Z,10.5
2022-11-17T17:22:12.418Z,10.6
2022-11-17T17:24:37.556Z,10.6
2022-11-17T17:27:03.647Z,10.9
2022-11-17T17:29:29.734Z,11
2022-11-17T17:31:55.845Z,11.1
2022-11-17T17:34:22.015Z,11.5
2022-11-17T17:36:48.027Z,12.1
2022-11-17T17:39:14.110Z,12.6
2022-11-17T17:44:06.331Z,12.9
2022-11-17T17:46:32.416Z,12.8
2022-11-17T17:48:58.515Z,12.8
2022-11-17T17:51:24.629Z,13
2022-11-17T17:53:50.739Z,13
2022-11-17T17:56:15.815Z,13
2022-11-17T17:58:41.904Z,13
2022-11-17T18:01:08.039Z,12.9
2022-11-17T18:03:34.084Z,12.8
2022-11-17T18:06:00.201Z,12.8
2022-11-17T18:08:26.288Z,12.7
2022-11-17T18:10:52.390Z,12.6
2022-11-17T18:13:18.505Z,12.6
2022-11-17T18:15:44.571Z,12.5
2022-11-17T18:18:10.793Z,12.4
2022-11-17T18:20:36.788Z,12.3
2022-11-17T18:23:02.868Z,12.2
2022-11-17T18:25:28.962Z,12
2022-11-17T18:27:54.074Z,12
2022-11-17T18:30:20.167Z,11.9
2022-11-17T18:32:46.268Z,11.9
2022-11-17T18:35:12.347Z,11.9
2022-11-17T18:37:38.442Z,11.9
2022-11-17T18:40:04.539Z,11.8
2022-11-17T18:42:30.913Z,11.8
2022-11-17T18:44:56.735Z,11.7
2022-11-17T18:47:22.853Z,11.7
2022-11-17T18:49:49.060Z,11.7
2022-11-17T18:52:15.110Z,11.6
2022-11-17T18:54:41.192Z,11.6
2022-11-17T18:57:07.226Z,11.6
2022-11-17T18:59:32.439Z,11.5
2022-11-17T19:01:58.547Z,11.5
2022-11-17T19:04:24.603Z,11.5
2022-11-17T19:06:50.624Z,11.4
2022-11-17T19:09:16.709Z,11.4
2022-11-17T19:11:42.815Z,11.4
2022-11-17T19:14:08.988Z,11.4
2022-11-17T19:16:35.050Z,11.4
2022-11-17T19:19:01.101Z,11.3
2022-11-17T19:21:27.206Z,11.3
2022-11-17T19:23:53.334Z,11.3
2022-11-17T19:26:19.391Z,11.2
2022-11-17T19:28:45.459Z,11.4
2022-11-17T19:31:10.637Z,11.7
2022-11-17T19:33:36.690Z,12.2
2022-11-17T19:36:02.768Z,12.6
2022-11-17T19:38:28.900Z,13
2022-11-17T19:40:55.004Z,13
2022-11-17T19:43:21.087Z,13.1
2022-11-17T19:45:47.296Z,13.2
2022-11-17T19:48:13.250Z,13.1
2022-11-17T19:50:39.340Z,13.2
2022-11-17T19:53:05.602Z,13.2
2022-11-17T19:55:31.543Z,13.1
2022-11-17T19:57:57.619Z,13.1
2022-11-17T20:00:23.784Z,13.1
2022-11-17T20:02:49.202Z,13
2022-11-17T20:05:14.948Z,12.9
2022-11-17T20:07:41.022Z,12.8
2022-11-17T20:10:07.149Z,12.7
2022-11-17T20:12:33.209Z,12.6
2022-11-17T20:14:59.446Z,12.5
2022-11-17T20:17:25.541Z,12.4
2022-11-17T20:19:51.506Z,12.3
2022-11-17T20:22:17.606Z,12.3
2022-11-17T20:24:43.694Z,12.3
2022-11-17T20:27:09.798Z,12.3
2022-11-17T20:29:35.897Z,12.1
2022-11-17T20:32:02.010Z,11.8
2022-11-17T20:34:27.105Z,11.5
2022-11-17T20:36:53.181Z,11.3
2022-11-17T20:39:19.288Z,11.2
2022-11-17T20:41:45.393Z,11.1
2022-11-17T20:44:11.477Z,11
2022-11-17T20:46:37.585Z,11
2022-11-17T20:49:03.675Z,10.9
2022-11-17T20:51:29.762Z,10.8
2022-11-17T20:53:55.863Z,10.7
2022-11-17T20:56:21.959Z,10.6
2022-11-17T20:58:48.037Z,10.6
2022-11-17T21:01:14.329Z,10.6
2022-11-17T21:03:40.370Z,10.5
2022-11-17T21:06:05.345Z,10.5
2022-11-17T21:08:31.552Z,10.5
2022-11-17T21:10:57.614Z,10.4
2022-11-17T21:13:23.635Z,10.4
2022-11-17T21:15:49.853Z,10.4
2022-11-17T21:18:15.920Z,10.4
2022-11-17T21:20:41.905Z,10.4
2022-11-17T21:23:08.158Z,10.3
2022-11-17T21:25:34.118Z,10.3
2022-11-17T21:28:00.196Z,10.3
2022-11-17T21:30:26.412Z,10.2
2022-11-17T21:32:52.401Z,10.2
2022-11-17T21:35:18.514Z,10.2
2022-11-17T21:37:43.624Z,10.2
2022-11-17T21:40:09.772Z,10.2
2022-11-17T21:42:35.811Z,10.1
2022-11-17T21:45:01.955Z,10.1
2022-11-17T21:47:27.972Z,10.1
2022-11-17T21:49:54.074Z,10.1
2022-11-17T21:52:20.181Z,10.1
2022-11-17T21:54:46.260Z,10.1
2022-11-17T21:57:12.353Z,10.1
2022-11-17T21:59:38.463Z,10.1
2022-11-17T22:02:04.556Z,10.1
2022-11-17T22:04:30.656Z,10
2022-11-17T22:06:56.747Z,10
2022-11-17T22:09:21.846Z,9.9
2022-11-17T22:11:47.968Z,9.8
2022-11-17T22:14:14.176Z,9.9
2022-11-17T22:16:40.143Z,9.8
2022-11-17T22:19:06.263Z,9.7
2022-11-17T22:21:32.337Z,9.7
2022-11-17T22:23:58.432Z,9.7
2022-11-17T22:26:24.562Z,9.6
2022-11-17T22:28:50.621Z,9.6
2022-11-17T22:31:16.757Z,9.6
2022-11-17T22:33:42.898Z,9.7
2022-11-17T22:36:08.945Z,9.7
2022-11-17T22:38:35.012Z,9.7
2022-11-17T22:41:00.107Z,9.7
2022-11-17T22:43:26.190Z,9.7
2022-11-17T22:45:52.292Z,9.7
2022-11-17T22:48:18.489Z,9.7
2022-11-17T22:50:44.645Z,9.7
2022-11-17T22:53:10.593Z,9.7
2022-11-17T22:55:36.764Z,9.6
2022-11-17T22:58:02.805Z,9.6
2022-11-17T23:00:28.877Z,9.6
2022-11-17T23:02:54.965Z,9.6
2022-11-17T23:05:21.061Z,9.6
2022-11-17T23:07:47.173Z,9.6
2022-11-17T23:10:13.248Z,9.6
2022-11-17T23:12:38.366Z,9.6
2022-11-17T23:15:04.484Z,9.6
2022-11-17T23:17:30.615Z,9.5
2022-11-17T23:19:56.639Z,9.5
2022-11-17T23:22:22.812Z,9.5
2022-11-17T23:24:48.840Z,9.4
2022-11-17T23:27:14.939Z,9.4
2022-11-17T23:29:41.037Z,9.3
2022-11-17T23:32:07.179Z,9.3
2022-11-17T23:34:33.340Z,9.3
2022-11-17T23:36:59.379Z,9.2
2022-11-17T23:39:25.412Z,9.2
2022-11-17T23:41:51.509Z,9.2
2022-11-17T23:44:16.644Z,9.2
2022-11-17T23:46:42.769Z,9.2
2022-11-17T23:49:08.801Z,9.2
2022-11-17T23:51:34.904Z,9.2
2022-11-17T23:54:01.035Z,9.2
2022-11-17T23:56:27.115Z,9.2
2022-11-17T23:58:53.187Z,9.2
